Time,TemperatureF,DewpointF,PressureIn,WindDirection,WindDirectionDegrees,WindSpeedMPH,WindSpeedGustMPH,Humidity,HourlyPrecipIn,Conditions,Clouds,dailyrainin,SoftwareType,DateUTC
2013-01-19 00:03:00,52.0,-99.9,30.39,NE,48,10.0,12.0,-999,-99.99,,,-99.99,,2013-01-19 06:03:00,
2013-01-19 00:12:00,52.0,-99.9,30.39,NE,47,11.0,12.0,-999,-99.99,,,-99.99,,2013-01-19 06:12:00,
2013-01-19 00:23:00,52.0,-99.9,30.38,NE,44,11.0,11.0,-999,-99.99,,,-99.99,,2013-01-19 06:23:00,
2013-01-19 00:33:00,52.0,-99.9,30.38,NE,49,10.0,11.0,-999,-99.99,,,-99.99,,2013-01-19 06:33:00,
2013-01-19 00:43:00,52.0,-99.9,30.38,NE,51,10.0,12.0,-999,-99.99,,,-99.99,,2013-01-19 06:43:00,
2013-01-19 00:53:00,52.0,-99.9,30.38,NE,54,11.0,13.0,-999,-99.99,,,-99.99,,2013-01-19 06:53:00,
2013-01-19 01:02:00,52.0,-99.9,30.38,NE,50,10.0,12.0,-999,-99.99,,,-99.99,,2013-01-19 07:02:00,
2013-01-19 01:12:00,52.0,-99.9,30.38,NE,49,10.0,12.0,-999,-99.99,,,-99.99,,2013-01-19 07:12:00,
2013-01-19 01:23:00,52.0,-99.9,30.38,NE,40,11.0,12.0,-999,-99.99,,,-99.99,,2013-01-19 07:23:00,
2013-01-19 01:33:00,52.0,-99.9,30.38,NE,36,11.0,12.0,-999,-99.99,,,-99.99,,2013-01-19 07:33:00,
2013-01-19 01:43:00,52.0,-99.9,30.39,NE,36,11.0,12.0,-999,-99.99,,,-99.99,,2013-01-19 07:43:00,
2013-01-19 01:53:00,52.0,-99.9,30.39,NNE,28,12.0,13.0,-999,-99.99,,,-99.99,,2013-01-19 07:53:00,
2013-01-19 02:03:00,51.0,-99.9,30.38,NNE,28,12.0,13.0,-999,-99.99,,,-99.99,,2013-01-19 08:03:00,
2013-01-19 02:12:00,51.0,-99.9,30.38,NNE,32,12.0,13.0,-999,-99.99,,,-99.99,,2013-01-19 08:12:00,
2013-01-19 02:22:00,51.0,-99.9,30.39,NNE,22,12.0,13.0,-999,-99.99,,,-99.99,,2013-01-19 08:22:00,
2013-01-19 02:33:00,51.0,-99.9,30.38,NNE,13,12.0,13.0,-999,-99.99,,,-99.99,,2013-01-19 08:33:00,
2013-01-19 02:43:00,51.0,-99.9,30.38,NNE,30,13.0,14.0,-999,-99.99,,,-99.99,,2013-01-19 08:43:00,
2013-01-19 02:53:00,51.0,-99.9,30.38,NNE,23,12.0,14.0,-999,-99.99,,,-99.99,,2013-01-19 08:53:00,
2013-01-19 03:02:00,51.0,-99.9,30.38,NNE,26,11.0,13.0,-999,-99.99,,,-99.99,,2013-01-19 09:02:00,
2013-01-19 03:12:00,51.0,-99.9,30.38,NNE,18,11.0,13.0,-999,-99.99,,,-99.99,,2013-01-19 09:12:00,
2013-01-19 03:23:00,51.0,-99.9,30.38,NNE,32,11.0,12.0,-999,-99.99,,,-99.99,,2013-01-19 09:23:00,
2013-01-19 03:33:00,51.0,-99.9,30.38,NNE,22,10.0,11.0,-999,-99.99,,,-99.99,,2013-01-19 09:33:00,
2013-01-19 03:43:00,51.0,-99.9,30.38,NNE,24,10.0,12.0,-999,-99.99,,,-99.99,,2013-01-19 09:43:00,
2013-01-19 03:53:00,50.0,-99.9,30.37,NNE,30,11.0,13.0,-999,-99.99,,,-99.99,,2013-01-19 09:53:00,
2013-01-19 04:02:00,50.0,-99.9,30.37,NNE,26,11.0,12.0,-999,-99.99,,,-99.99,,2013-01-19 10:02:00,
2013-01-19 04:13:00,50.0,-99.9,30.37,NNE,23,11.0,13.0,-999,-99.99,,,-99.99,,2013-01-19 10:13:00,
2013-01-19 04:23:00,50.0,-99.9,30.37,NE,35,13.0,15.0,-999,-99.99,,,-99.99,,2013-01-19 10:23:00,
2013-01-19 04:33:00,49.0,-99.9,30.37,NNE,29,13.0,15.0,-999,-99.99,,,-99.99,,2013-01-19 10:33:00,
2013-01-19 04:43:00,49.0,-99.9,30.37,NE,35,14.0,16.0,-999,-99.99,,,-99.99,,2013-01-19 10:43:00,
2013-01-19 04:53:00,49.0,-99.9,30.37,NNE,18,14.0,18.0,-999,-99.99,,,-99.99,,2013-01-19 10:53:00,
2013-01-19 05:03:00,49.0,-99.9,30.37,NNE,29,15.0,18.0,-999,-99.99,,,-99.99,,2013-01-19 11:03:00,
2013-01-19 05:12:00,50.0,-99.9,30.37,NNE,28,15.0,17.0,-999,-99.99,,,-99.99,,2013-01-19 11:12:00,
2013-01-19 05:42:00,48.0,-99.9,30.37,NE,35,12.0,14.0,-999,-99.99,,,-99.99,,2013-01-19 11:42:00,
2013-01-19 06:48:00,48.0,-99.9,30.37,NNE,31,12.0,13.0,-999,-99.99,,,-99.99,,2013-01-19 12:48:00,
2013-01-19 06:53:00,48.0,-99.9,30.37,NE,34,12.0,15.0,-999,-99.99,,,-99.99,,2013-01-19 12:53:00,
2013-01-19 07:03:00,48.0,-99.9,30.37,NE,37,14.0,16.0,-999,-99.99,,,-99.99,,2013-01-19 13:03:00,
2013-01-19 07:13:00,49.0,-99.9,30.37,NNE,33,11.0,14.0,-999,-99.99,,,-99.99,,2013-01-19 13:13:00,
2013-01-19 07:23:00,49.0,-99.9,30.38,NE,43,13.0,14.0,-999,-99.99,,,-99.99,,2013-01-19 13:23:00,
2013-01-19 07:34:00,49.0,-99.9,30.38,NE,36,12.0,14.0,-999,-99.99,,,-99.99,,2013-01-19 13:34:00,
2013-01-19 07:43:00,49.0,-99.9,30.38,NE,34,12.0,14.0,-999,-99.99,,,-99.99,,2013-01-19 13:43:00,
2013-01-19 07:54:00,49.0,-99.9,30.39,NE,36,13.0,14.0,-999,-99.99,,,-99.99,,2013-01-19 13:54:00,
2013-01-19 08:03:00,49.0,-99.9,30.39,NE,34,12.0,13.0,-999,-99.99,,,-99.99,,2013-01-19 14:03:00,
2013-01-19 08:13:00,49.0,-99.9,30.39,NNE,33,12.0,13.0,-999,-99.99,,,-99.99,,2013-01-19 14:13:00,
2013-01-19 08:23:00,49.0,-99.9,30.39,NE,41,14.0,15.0,-999,-99.99,,,-99.99,,2013-01-19 14:23:00,
2013-01-19 08:34:00,49.0,-99.9,30.40,NE,36,12.0,15.0,-999,-99.99,,,-99.99,,2013-01-19 14:34:00,
2013-01-19 08:43:00,49.0,-99.9,30.40,NE,39,13.0,15.0,-999,-99.99,,,-99.99,,2013-01-19 14:43:00,
2013-01-19 08:54:00,50.0,-99.9,30.39,NE,43,13.0,15.0,-999,-99.99,,,-99.99,,2013-01-19 14:54:00,
2013-01-19 09:03:00,50.0,-99.9,30.40,NE,35,12.0,15.0,-999,-99.99,,,-99.99,,2013-01-19 15:03:00,
2013-01-19 09:13:00,50.0,-99.9,30.40,NE,37,13.0,14.0,-999,-99.99,,,-99.99,,2013-01-19 15:13:00,
2013-01-19 09:23:00,50.0,-99.9,30.40,NE,48,13.0,14.0,-999,-99.99,,,-99.99,,2013-01-19 15:23:00,
2013-01-19 09:34:00,50.0,-99.9,30.41,NE,47,13.0,15.0,-999,-99.99,,,-99.99,,2013-01-19 15:34:00,
2013-01-19 09:43:00,50.0,-99.9,30.41,NE,47,11.0,15.0,-999,-99.99,,,-99.99,,2013-01-19 15:43:00,
2013-01-19 09:53:00,50.0,-99.9,30.41,NE,45,12.0,14.0,-999,-99.99,,,-99.99,,2013-01-19 15:53:00,
2013-01-19 10:04:00,51.0,-99.9,30.41,NE,44,12.0,14.0,-999,-99.99,,,-99.99,,2013-01-19 16:04:00,
2013-01-19 10:13:00,51.0,-99.9,30.41,NE,40,11.0,13.0,-999,-99.99,,,-99.99,,2013-01-19 16:13:00,
2013-01-19 10:23:00,51.0,-99.9,30.41,NE,46,10.0,12.0,-999,-99.99,,,-99.99,,2013-01-19 16:23:00,
2013-01-19 10:33:00,51.0,-99.9,30.41,NE,36,10.0,11.0,-999,-99.99,,,-99.99,,2013-01-19 16:33:00,
2013-01-19 10:43:00,51.0,-99.9,30.40,NE,34,10.0,11.0,-999,-99.99,,,-99.99,,2013-01-19 16:43:00,
2013-01-19 10:54:00,51.0,-99.9,30.40,NE,36,10.0,11.0,-999,-99.99,,,-99.99,,2013-01-19 16:54:00,
2013-01-19 11:03:00,52.0,-99.9,30.40,NE,35,10.0,12.0,-999,-99.99,,,-99.99,,2013-01-19 17:03:00,
2013-01-19 11:23:00,53.0,-99.9,30.39,NE,46,11.0,12.0,-999,-99.99,,,-99.99,,2013-01-19 17:23:00,
2013-01-19 11:29:00,53.0,-99.9,30.38,NE,41,10.0,12.0,-999,-99.99,,,-99.99,,2013-01-19 17:29:00,
2013-01-19 11:50:00,53.0,-99.9,30.37,NNE,26,9.0,10.0,-999,-99.99,,,-99.99,,2013-01-19 17:50:00,
2013-01-19 11:55:00,53.0,-99.9,30.37,NNE,27,8.0,9.0,-999,-99.99,,,-99.99,,2013-01-19 17:55:00,
2013-01-19 12:13:00,52.0,-99.9,30.36,North,8,8.0,10.0,-999,-99.99,,,-99.99,,2013-01-19 18:13:00,
2013-01-19 12:29:00,53.0,-99.9,30.35,North,4,9.0,10.0,-999,-99.99,,,-99.99,,2013-01-19 18:29:00,
2013-01-19 12:39:00,53.0,-99.9,30.35,North,4,9.0,11.0,-999,-99.99,,,-99.99,,2013-01-19 18:39:00,
2013-01-19 13:04:00,53.0,-99.9,30.34,North,5,9.0,10.0,-999,-99.99,,,-99.99,,2013-01-19 19:04:00,
2013-01-19 13:10:00,53.0,-99.9,30.33,North,3,9.0,10.0,-999,-99.99,,,-99.99,,2013-01-19 19:10:00,
2013-01-19 13:22:00,54.0,-99.9,30.32,North,6,8.0,8.0,-999,-99.99,,,-99.99,,2013-01-19 19:22:00,
2013-01-19 13:40:00,54.0,-99.9,30.32,North,2,6.0,6.0,-999,-99.99,,,-99.99,,2013-01-19 19:40:00,
2013-01-19 13:50:00,54.0,-99.9,30.31,North,3,5.0,6.0,-999,-99.99,,,-99.99,,2013-01-19 19:50:00,
2013-01-19 13:59:00,54.0,-99.9,30.31,North,7,6.0,6.0,-999,-99.99,,,-99.99,,2013-01-19 19:59:00,
2013-01-19 14:12:00,54.0,-99.9,30.30,North,5,5.0,7.0,-999,-99.99,,,-99.99,,2013-01-19 20:12:00,
2013-01-19 14:20:00,55.0,-99.9,30.30,North,350,4.0,5.0,-999,-99.99,,,-99.99,,2013-01-19 20:20:00,
2013-01-19 14:28:00,55.0,-99.9,30.29,North,2,4.0,5.0,-999,-99.99,,,-99.99,,2013-01-19 20:28:00,
2013-01-19 14:40:00,55.0,-99.9,30.29,NNW,329,3.0,5.0,-999,-99.99,,,-99.99,,2013-01-19 20:40:00,
2013-01-19 14:50:00,55.0,-99.9,30.29,NNW,335,3.0,4.0,-999,-99.99,,,-99.99,,2013-01-19 20:50:00,
2013-01-19 14:59:00,56.0,-99.9,30.29,NNW,342,2.0,4.0,-999,-99.99,,,-99.99,,2013-01-19 20:59:00,
2013-01-19 15:09:00,56.0,-99.9,30.29,North,351,4.0,4.0,-999,-99.99,,,-99.99,,2013-01-19 21:09:00,
2013-01-19 15:15:00,56.0,-99.9,30.29,North,357,4.0,5.0,-999,-99.99,,,-99.99,,2013-01-19 21:15:00,
2013-01-19 15:30:00,56.0,-99.9,30.28,NNE,26,4.0,4.0,-999,-99.99,,,-99.99,,2013-01-19 21:30:00,
2013-01-19 15:48:00,56.0,-99.9,30.28,NNE,26,4.0,4.0,-999,-99.99,,,-99.99,,2013-01-19 21:48:00,
2013-01-19 15:55:00,56.0,-99.9,30.28,North,7,3.0,4.0,-999,-99.99,,,-99.99,,2013-01-19 21:55:00,
2013-01-19 16:02:00,56.0,-99.9,30.28,North,7,3.0,4.0,-999,-99.99,,,-99.99,,2013-01-19 22:02:00,
2013-01-19 16:16:00,57.0,-99.9,30.28,NNE,12,3.0,4.0,-999,-99.99,,,-99.99,,2013-01-19 22:16:00,
2013-01-19 16:29:00,57.0,-99.9,30.28,NE,46,2.0,2.0,-999,-99.99,,,-99.99,,2013-01-19 22:29:00,
2013-01-19 16:49:00,57.0,-99.9,30.28,NNE,31,2.0,3.0,-999,-99.99,,,-99.99,,2013-01-19 22:49:00,
2013-01-19 16:59:00,57.0,-99.9,30.28,NE,37,2.0,2.0,-999,-99.99,,,-99.99,,2013-01-19 22:59:00,
2013-01-19 17:14:00,57.0,-99.9,30.28,ENE,75,2.0,2.0,-999,-99.99,,,-99.99,,2013-01-19 23:14:00,
2013-01-19 17:29:00,57.0,-99.9,30.28,East,84,1.0,2.0,-999,-99.99,,,-99.99,,2013-01-19 23:29:00,
2013-01-19 17:35:00,57.0,-99.9,30.28,ENE,64,1.0,1.0,-999,-99.99,,,-99.99,,2013-01-19 23:35:00,
2013-01-19 17:52:00,57.0,-99.9,30.28,ENE,70,1.0,2.0,-999,-99.99,,,-99.99,,2013-01-19 23:52:00,
2013-01-19 18:08:00,56.0,-99.9,30.27,NE,56,1.0,2.0,-999,-99.99,,,-99.99,,2013-01-20 00:08:00,
2013-01-19 18:17:00,55.0,-99.9,30.27,NW,309,2.0,3.0,-999,-99.99,,,-99.99,,2013-01-20 00:17:00,
2013-01-19 18:26:00,55.0,-99.9,30.28,NNW,330,3.0,4.0,-999,-99.99,,,-99.99,,2013-01-20 00:26:00,
2013-01-19 18:39:00,55.0,-99.9,30.27,North,353,1.0,2.0,-999,-99.99,,,-99.99,,2013-01-20 00:39:00,
2013-01-19 18:48:00,55.0,-99.9,30.28,North,349,1.0,2.0,-999,-99.99,,,-99.99,,2013-01-20 00:48:00,
2013-01-19 18:58:00,56.0,-99.9,30.28,NNE,13,1.0,3.0,-999,-99.99,,,-99.99,,2013-01-20 00:58:00,
2013-01-19 19:05:00,55.0,-99.9,30.28,NNE,16,1.0,2.0,-999,-99.99,,,-99.99,,2013-01-20 01:05:00,
2013-01-19 19:22:00,55.0,-99.9,30.29,North,356,1.0,1.0,-999,-99.99,,,-99.99,,2013-01-20 01:22:00,
2013-01-19 19:28:00,55.0,-99.9,30.29,NE,35,1.0,1.0,-999,-99.99,,,-99.99,,2013-01-20 01:28:00,
2013-01-19 19:39:00,55.0,-99.9,30.29,ENE,65,3.0,3.0,-999,-99.99,,,-99.99,,2013-01-20 01:39:00,
2013-01-19 19:53:00,56.0,-99.9,30.28,ENE,69,3.0,3.0,-999,-99.99,,,-99.99,,2013-01-20 01:53:00,
2013-01-19 20:05:00,56.0,-99.9,30.28,East,88,4.0,4.0,-999,-99.99,,,-99.99,,2013-01-20 02:05:00,
2013-01-19 20:16:00,55.0,-99.9,30.29,East,95,2.0,3.0,-999,-99.99,,,-99.99,,2013-01-20 02:16:00,
2013-01-19 20:28:00,55.0,-99.9,30.29,ENE,74,-999.0,1.0,-999,-99.99,,,-99.99,,2013-01-20 02:28:00,
2013-01-19 20:38:00,55.0,-99.9,30.28,NE,55,2.0,2.0,-999,-99.99,,,-99.99,,2013-01-20 02:38:00,
2013-01-19 20:46:00,55.0,-99.9,30.28,NE,43,0.0,2.0,-999,-99.99,,,-99.99,,2013-01-20 02:46:00,
2013-01-19 21:00:00,55.0,-99.9,30.28,ENE,65,1.0,2.0,-999,-99.99,,,-99.99,,2013-01-20 03:00:00,
2013-01-19 21:09:00,55.0,-99.9,30.28,East,79,1.0,2.0,-999,-99.99,,,-99.99,,2013-01-20 03:09:00,
2013-01-19 21:15:00,55.0,-99.9,30.27,ENE,68,2.0,2.0,-999,-99.99,,,-99.99,,2013-01-20 03:15:00,
2013-01-19 21:27:00,55.0,-99.9,30.27,East,84,2.0,3.0,-999,-99.99,,,-99.99,,2013-01-20 03:27:00,
2013-01-19 21:40:00,55.0,-99.9,30.28,East,90,1.0,3.0,-999,-99.99,,,-99.99,,2013-01-20 03:40:00,
2013-01-19 21:48:00,55.0,-99.9,30.28,East,95,2.0,3.0,-999,-99.99,,,-99.99,,2013-01-20 03:48:00,
2013-01-19 21:59:00,55.0,-99.9,30.27,ENE,78,2.0,3.0,-999,-99.99,,,-99.99,,2013-01-20 03:59:00,
2013-01-19 22:05:00,55.0,-99.9,30.27,NNE,28,2.0,6.0,-999,-99.99,,,-99.99,,2013-01-20 04:05:00,
2013-01-19 22:15:00,54.0,-99.9,30.27,NNW,340,6.0,6.0,-999,-99.99,,,-99.99,,2013-01-20 04:15:00,
2013-01-19 22:28:00,54.0,-99.9,30.27,North,11,8.0,11.0,-999,-99.99,,,-99.99,,2013-01-20 04:28:00,
2013-01-19 22:38:00,54.0,-99.9,30.27,NNE,24,6.0,8.0,-999,-99.99,,,-99.99,,2013-01-20 04:38:00,
2013-01-19 22:45:00,54.0,-99.9,30.27,North,10,8.0,10.0,-999,-99.99,,,-99.99,,2013-01-20 04:45:00,
2013-01-19 22:59:00,54.0,-99.9,30.27,NNE,15,7.0,9.0,-999,-99.99,,,-99.99,,2013-01-20 04:59:00,
2013-01-19 23:04:00,54.0,-99.9,30.27,NNE,21,8.0,8.0,-999,-99.99,,,-99.99,,2013-01-20 05:04:00,
2013-01-19 23:12:00,54.0,-99.9,30.27,NNE,19,7.0,8.0,-999,-99.99,,,-99.99,,2013-01-20 05:12:00,
2013-01-19 23:23:00,54.0,-99.9,30.28,NNE,17,4.0,5.0,-999,-99.99,,,-99.99,,2013-01-20 05:23:00,
2013-01-19 23:33:00,54.0,-99.9,30.28,North,7,3.0,4.0,-999,-99.99,,,-99.99,,2013-01-20 05:33:00,
2013-01-19 23:43:00,54.0,-99.9,30.28,North,1,3.0,4.0,-999,-99.99,,,-99.99,,2013-01-20 05:43:00,
2013-01-19 23:53:00,54.0,-99.9,30.28,North,354,5.0,6.0,-999,-99.99,,,-99.99,,2013-01-20 05:53:00,